Metar GG30 METAR message from awiacja.imgw.pl Metar G30 EPKT METAR EPKT 240430Z 08004KT 070V150 1400 0300NW R27/2000N BCFG BR FEW000 07/07 Q1015 =